Acushnet, MA

9:13 AM EDT on September 04, 2015 (GMT -0400)
APRSWXNET | | Change Station
CLOSE
Current Station
Personal Weather Station
Location: New Bedford, MA
Elevation: 93 ft
Nearby Weather Stations

Elev 93 ft 41.70 °N, 70.93 °W | Updated 33 minutes ago

Overcast
Overcast
71 °F
Feels Like 71 °F
N
3
Wind Variable Wind from NNW
Gusts 12.0 mph

Today
High -- | Low -- °F
--% Chance of Precip.
Yesterday
High -- | Low -- °F
Precip. -- in
6:12 AM 7:12 PM
Waning Gibbous, 59% visible
Pressure 30.08 in
Visibility 10.0 miles
Clouds Scattered Clouds 1400 ft
Scattered Clouds 2900 ft
Heat Index 71 °F
Dew Point 66 °F
Humidity 83%
Rainfall in
Snow Depth Not available.
UV 3 out of 12
Pollen 7.80 out of 12
Air Quality Not available.
Flu Activity Not available.
SPECI KEWB 041300Z 03010KT 10SM SCT014 SCT029 21/17 A3008 RMK AO2 T02110167
Pressure 30.08 in
Visibility 10.0 miles
Clouds Scattered Clouds 1400 ft
Scattered Clouds 2900 ft
Heat Index 71 °F
Dew Point 66 °F
Humidity 83%
Rainfall in
Snow Depth Not available.
UV 3 out of 12
Pollen 7.80 out of 12
Air Quality Not available.
Flu Activity Not available.
SPECI KEWB 041300Z 03010KT 10SM SCT014 SCT029 21/17 A3008 RMK AO2 T02110167

10-Day Weather Forecast

×

Almanac

Astronomy

Sep. 04, 2015 Rise Set
Actual Time
Civil Twilight
Nautical Twilight
Astronomical Twilight
Moon
Length of Visible Light
Length of Day
Tomorrow will be .
, % of the Moon is Illuminated

Today's Extremes

State Highs State Lows

Community

WunderPhotos

Upload Photos

1,852,179 photos uploaded!

WunderBlogs® & News

Nearby

Air Quality

  Air Quality AQ Index Pollutant
Not available.

Snow Depth

Station Depth Elevation

Earthquake Activity

City Distance Mag. Time & Date
Minimum magnitude displayed is 2.5.

Coastal Water Temperatures

Place Temperature

Stations

Nearby Weather Stations

Station Location Temp. Windchill Dew Point Humidity Wind Precip. Elev Updated Type